createdAt,value
2022-10-03T00:00:02.404Z,96861.16
2022-10-03T00:15:17.062Z,96874.94
2022-10-03T00:30:24.589Z,96888.84
2022-10-03T00:45:32.500Z,96898.16
2022-10-03T01:00:34.537Z,96916.63
2022-10-03T01:15:39.160Z,96910.00
2022-10-03T01:30:42.377Z,96909.72
2022-10-03T01:46:03.126Z,96910.19
2022-10-03T02:01:07.890Z,96930.47
2022-10-03T02:16:30.150Z,96941.88
2022-10-03T02:31:50.279Z,96948.13
2022-10-03T02:47:11.144Z,96962.31
2022-10-03T03:02:48.666Z,96964.97
2022-10-03T03:18:05.634Z,96970.06
2022-10-03T03:33:07.947Z,96965.31
2022-10-03T03:48:12.134Z,96956.66
2022-10-03T04:03:44.707Z,96974.13
2022-10-03T04:18:58.670Z,96996.09
2022-10-03T04:34:21.054Z,96985.47
2022-10-03T04:49:32.110Z,96983.31
2022-10-03T05:04:39.205Z,96988.19
2022-10-03T05:19:51.042Z,97000.59
2022-10-03T05:34:59.079Z,97008.50
2022-10-03T05:50:41.951Z,97014.56
2022-10-03T06:05:52.670Z,97030.19
2022-10-03T06:20:55.055Z,97047.66
2022-10-03T06:36:03.294Z,97043.41
2022-10-03T06:51:27.132Z,97064.97
2022-10-03T07:06:51.290Z,97073.31
2022-10-03T07:22:08.693Z,97082.53
2022-10-03T07:37:29.338Z,97088.13
2022-10-03T07:52:38.065Z,97096.44
2022-10-03T08:07:48.727Z,97099.41
2022-10-03T08:23:05.915Z,97099.22
2022-10-03T08:38:11.707Z,97110.03
2022-10-03T08:53:22.922Z,97099.78
2022-10-03T09:08:24.785Z,97115.94
2022-10-03T09:23:45.399Z,97112.06
2022-10-03T09:38:47.265Z,97103.50
2022-10-03T09:53:53.056Z,97083.25
2022-10-03T10:09:13.650Z,97080.59
2022-10-03T10:24:36.390Z,97084.13
2022-10-03T10:39:57.084Z,97096.56
2022-10-03T10:55:03.714Z,97099.81
2022-10-03T11:10:09.224Z,97105.91
2022-10-03T11:25:17.341Z,97094.19
2022-10-03T11:40:23.311Z,97079.19
2022-10-03T11:55:25.231Z,97075.00
2022-10-03T12:10:27.986Z,97080.00
2022-10-03T12:25:34.761Z,97067.34
2022-10-03T12:40:50.037Z,97051.75
2022-10-03T12:56:04.392Z,97032.75
2022-10-03T13:11:09.399Z,97031.41
2022-10-03T13:26:15.938Z,97026.66
2022-10-03T13:41:34.600Z,97024.31
2022-10-03T13:56:39.775Z,97013.44
2022-10-03T14:12:00.448Z,97004.09
2022-10-03T14:27:11.487Z,97005.97
2022-10-03T14:42:33.162Z,96995.47
2022-10-03T14:58:11.725Z,96981.66
2022-10-03T15:13:14.839Z,96979.22
2022-10-03T15:28:19.661Z,96991.63
2022-10-03T15:43:28.462Z,96992.47
2022-10-03T15:58:33.774Z,96985.75
2022-10-03T16:13:39.455Z,96978.22
2022-10-03T16:28:45.054Z,96978.63
2022-10-03T16:43:57.303Z,96978.44
2022-10-03T16:59:01.098Z,96986.94
2022-10-03T17:14:04.220Z,96992.00
2022-10-03T17:29:11.117Z,96985.28
2022-10-03T17:44:17.509Z,96975.66
2022-10-03T17:59:20.532Z,96974.38
2022-10-03T18:14:28.154Z,96972.84
2022-10-03T18:29:37.182Z,96960.50
2022-10-03T18:44:39.340Z,96946.81
2022-10-03T18:59:42.992Z,96950.84
2022-10-03T19:14:51.197Z,96952.19
2022-10-03T19:29:53.938Z,96955.19
2022-10-03T19:44:56.927Z,96960.72
2022-10-03T20:00:00.014Z,96962.47
2022-10-03T20:15:06.738Z,96959.88
2022-10-03T20:30:21.081Z,96965.34
2022-10-03T20:45:26.367Z,96956.06
2022-10-03T21:00:28.276Z,96939.66
2022-10-03T21:15:38.006Z,96949.16
2022-10-03T21:30:45.644Z,96931.16
2022-10-03T21:46:10.859Z,96919.03
2022-10-03T22:01:27.322Z,96913.66
2022-10-03T22:16:32.280Z,96888.34
2022-10-03T22:31:36.324Z,96893.25
2022-10-03T22:46:38.711Z,96879.53
2022-10-03T23:01:41.814Z,96877.16
2022-10-03T23:17:02.566Z,96863.91
2022-10-03T23:32:04.990Z,96864.22
2022-10-03T23:47:07.061Z,96845.53
